sensor_id;sensor_type;location;lat;lon;timestamp;temperature;humidity
4056;DHT22;2043;52.184;8.690;2023-07-20T00:01:51;18.20;96.90
4056;DHT22;2043;52.184;8.690;2023-07-20T00:06:45;18.20;96.80
4056;DHT22;2043;52.184;8.690;2023-07-20T00:09:12;18.20;96.40
4056;DHT22;2043;52.184;8.690;2023-07-20T00:11:39;18.30;95.90
4056;DHT22;2043;52.184;8.690;2023-07-20T00:14:06;18.30;95.90
4056;DHT22;2043;52.184;8.690;2023-07-20T00:16:33;18.30;95.90
4056;DHT22;2043;52.184;8.690;2023-07-20T00:19:00;18.30;95.80
4056;DHT22;2043;52.184;8.690;2023-07-20T00:21:27;18.30;95.80
4056;DHT22;2043;52.184;8.690;2023-07-20T00:23:54;18.30;95.70
4056;DHT22;2043;52.184;8.690;2023-07-20T00:26:21;18.30;95.70
4056;DHT22;2043;52.184;8.690;2023-07-20T00:28:50;18.30;95.90
4056;DHT22;2043;52.184;8.690;2023-07-20T00:31:17;18.30;96.10
4056;DHT22;2043;52.184;8.690;2023-07-20T00:33:44;18.20;96.20
4056;DHT22;2043;52.184;8.690;2023-07-20T00:36:11;18.20;96.30
4056;DHT22;2043;52.184;8.690;2023-07-20T00:38:38;18.20;96.20
4056;DHT22;2043;52.184;8.690;2023-07-20T00:41:05;18.20;96.20
4056;DHT22;2043;52.184;8.690;2023-07-20T00:43:31;18.20;96.30
4056;DHT22;2043;52.184;8.690;2023-07-20T00:45:58;18.20;96.50
4056;DHT22;2043;52.184;8.690;2023-07-20T00:48:26;18.20;96.60
4056;DHT22;2043;52.184;8.690;2023-07-20T00:50:52;18.10;96.70
4056;DHT22;2043;52.184;8.690;2023-07-20T00:53:19;17.90;97.40
4056;DHT22;2043;52.184;8.690;2023-07-20T00:55:47;17.80;97.80
4056;DHT22;2043;52.184;8.690;2023-07-20T00:58:14;17.70;98.40
4056;DHT22;2043;52.184;8.690;2023-07-20T01:00:40;17.70;98.10
4056;DHT22;2043;52.184;8.690;2023-07-20T01:03:07;17.70;98.20
4056;DHT22;2043;52.184;8.690;2023-07-20T01:08:39;17.50;98.30
4056;DHT22;2043;52.184;8.690;2023-07-20T01:11:13;17.50;98.50
4056;DHT22;2043;52.184;8.690;2023-07-20T01:13:41;17.40;99.10
4056;DHT22;2043;52.184;8.690;2023-07-20T01:16:09;17.60;99.00
4056;DHT22;2043;52.184;8.690;2023-07-20T01:18:36;17.70;98.80
4056;DHT22;2043;52.184;8.690;2023-07-20T01:21:09;17.70;98.80
4056;DHT22;2043;52.184;8.690;2023-07-20T01:24:12;17.80;97.90
4056;DHT22;2043;52.184;8.690;2023-07-20T01:27:25;17.80;98.00
4056;DHT22;2043;52.184;8.690;2023-07-20T01:32:26;17.60;98.40
4056;DHT22;2043;52.184;8.690;2023-07-20T01:34:54;17.50;98.50
4056;DHT22;2043;52.184;8.690;2023-07-20T01:37:21;17.60;98.40
4056;DHT22;2043;52.184;8.690;2023-07-20T01:39:53;17.70;98.00
4056;DHT22;2043;52.184;8.690;2023-07-20T01:42:22;17.60;98.10
4056;DHT22;2043;52.184;8.690;2023-07-20T01:44:51;17.60;98.00
4056;DHT22;2043;52.184;8.690;2023-07-20T01:47:19;17.60;98.00
4056;DHT22;2043;52.184;8.690;2023-07-20T01:49:46;17.60;97.80
4056;DHT22;2043;52.184;8.690;2023-07-20T01:52:13;17.60;97.70
4056;DHT22;2043;52.184;8.690;2023-07-20T01:54:40;17.60;97.70
4056;DHT22;2043;52.184;8.690;2023-07-20T01:57:06;17.40;98.90
4056;DHT22;2043;52.184;8.690;2023-07-20T01:59:33;17.40;99.10
4056;DHT22;2043;52.184;8.690;2023-07-20T02:02:00;17.50;99.10
4056;DHT22;2043;52.184;8.690;2023-07-20T02:04:27;17.50;99.00
4056;DHT22;2043;52.184;8.690;2023-07-20T02:06:53;17.50;98.20
4056;DHT22;2043;52.184;8.690;2023-07-20T02:09:20;17.50;98.00
4056;DHT22;2043;52.184;8.690;2023-07-20T02:11:47;17.50;98.60
4056;DHT22;2043;52.184;8.690;2023-07-20T02:14:14;17.30;99.60
4056;DHT22;2043;52.184;8.690;2023-07-20T02:16:41;17.30;99.40
4056;DHT22;2043;52.184;8.690;2023-07-20T02:19:08;17.10;99.90
4056;DHT22;2043;52.184;8.690;2023-07-20T02:21:34;17.20;99.90
4056;DHT22;2043;52.184;8.690;2023-07-20T02:24:01;17.20;99.90
4056;DHT22;2043;52.184;8.690;2023-07-20T02:26:28;17.20;99.90
4056;DHT22;2043;52.184;8.690;2023-07-20T02:28:55;17.20;99.90
4056;DHT22;2043;52.184;8.690;2023-07-20T02:31:22;17.20;99.90
4056;DHT22;2043;52.184;8.690;2023-07-20T02:33:49;17.30;99.90
4056;DHT22;2043;52.184;8.690;2023-07-20T02:36:15;17.50;99.90
4056;DHT22;2043;52.184;8.690;2023-07-20T02:38:43;17.50;99.90
4056;DHT22;2043;52.184;8.690;2023-07-20T02:41:10;17.50;99.90
4056;DHT22;2043;52.184;8.690;2023-07-20T02:43:37;17.50;99.90
4056;DHT22;2043;52.184;8.690;2023-07-20T02:46:03;17.50;99.90
4056;DHT22;2043;52.184;8.690;2023-07-20T02:48:30;17.50;99.90
4056;DHT22;2043;52.184;8.690;2023-07-20T02:50:57;17.50;99.90
4056;DHT22;2043;52.184;8.690;2023-07-20T02:53:24;17.20;99.90
4056;DHT22;2043;52.184;8.690;2023-07-20T02:55:51;17.10;99.90
4056;DHT22;2043;52.184;8.690;2023-07-20T02:58:17;17.10;99.90
4056;DHT22;2043;52.184;8.690;2023-07-20T03:00:44;17.10;99.90
4056;DHT22;2043;52.184;8.690;2023-07-20T03:03:11;17.00;99.90
4056;DHT22;2043;52.184;8.690;2023-07-20T03:05:41;17.00;99.90
4056;DHT22;2043;52.184;8.690;2023-07-20T03:08:08;16.80;99.90
4056;DHT22;2043;52.184;8.690;2023-07-20T03:10:39;16.80;99.90
4056;DHT22;2043;52.184;8.690;2023-07-20T03:13:07;16.90;99.90
4056;DHT22;2043;52.184;8.690;2023-07-20T03:15:34;16.90;99.90
4056;DHT22;2043;52.184;8.690;2023-07-20T03:18:01;16.90;99.90
4056;DHT22;2043;52.184;8.690;2023-07-20T03:20:28;16.80;99.90
4056;DHT22;2043;52.184;8.690;2023-07-20T03:22:54;16.80;99.90
4056;DHT22;2043;52.184;8.690;2023-07-20T03:25:21;16.80;99.90
4056;DHT22;2043;52.184;8.690;2023-07-20T03:27:50;16.70;99.90
4056;DHT22;2043;52.184;8.690;2023-07-20T03:30:17;16.70;99.90
4056;DHT22;2043;52.184;8.690;2023-07-20T03:32:44;16.80;99.90
4056;DHT22;2043;52.184;8.690;2023-07-20T03:35:11;16.80;99.90
4056;DHT22;2043;52.184;8.690;2023-07-20T03:37:38;16.70;99.90
4056;DHT22;2043;52.184;8.690;2023-07-20T03:40:05;16.60;99.90
4056;DHT22;2043;52.184;8.690;2023-07-20T03:42:34;16.50;99.90
4056;DHT22;2043;52.184;8.690;2023-07-20T03:45:00;16.50;99.90
4056;DHT22;2043;52.184;8.690;2023-07-20T03:47:27;16.40;99.90
4056;DHT22;2043;52.184;8.690;2023-07-20T03:49:54;16.40;99.90
4056;DHT22;2043;52.184;8.690;2023-07-20T03:52:21;16.50;99.90
4056;DHT22;2043;52.184;8.690;2023-07-20T03:54:47;16.50;99.90
4056;DHT22;2043;52.184;8.690;2023-07-20T03:57:14;16.40;99.90
4056;DHT22;2043;52.184;8.690;2023-07-20T03:59:45;16.40;99.90
4056;DHT22;2043;52.184;8.690;2023-07-20T04:02:12;16.40;99.90
4056;DHT22;2043;52.184;8.690;2023-07-20T04:04:38;16.40;99.90
4056;DHT22;2043;52.184;8.690;2023-07-20T04:07:05;16.50;99.90
4056;DHT22;2043;52.184;8.690;2023-07-20T04:09:32;16.40;99.90
4056;DHT22;2043;52.184;8.690;2023-07-20T04:11:59;16.40;99.90
4056;DHT22;2043;52.184;8.690;2023-07-20T04:14:26;16.40;99.90
4056;DHT22;2043;52.184;8.690;2023-07-20T04:16:53;16.40;99.90
4056;DHT22;2043;52.184;8.690;2023-07-20T04:19:20;16.40;99.90
4056;DHT22;2043;52.184;8.690;2023-07-20T04:21:47;16.40;99.90
4056;DHT22;2043;52.184;8.690;2023-07-20T04:24:14;16.30;99.90
4056;DHT22;2043;52.184;8.690;2023-07-20T04:26:40;16.40;99.90
4056;DHT22;2043;52.184;8.690;2023-07-20T04:29:07;16.30;99.90
4056;DHT22;2043;52.184;8.690;2023-07-20T04:31:34;16.40;99.90
4056;DHT22;2043;52.184;8.690;2023-07-20T04:34:01;16.40;99.90
4056;DHT22;2043;52.184;8.690;2023-07-20T04:36:28;16.40;99.90
4056;DHT22;2043;52.184;8.690;2023-07-20T04:38:54;16.40;99.90
4056;DHT22;2043;52.184;8.690;2023-07-20T04:41:21;16.40;99.90
4056;DHT22;2043;52.184;8.690;2023-07-20T04:43:48;16.30;99.90
4056;DHT22;2043;52.184;8.690;2023-07-20T04:46:15;16.40;99.90
4056;DHT22;2043;52.184;8.690;2023-07-20T04:48:44;16.40;99.90
4056;DHT22;2043;52.184;8.690;2023-07-20T04:51:10;16.40;99.90
4056;DHT22;2043;52.184;8.690;2023-07-20T04:53:38;16.50;99.90
4056;DHT22;2043;52.184;8.690;2023-07-20T04:56:05;16.40;99.90
4056;DHT22;2043;52.184;8.690;2023-07-20T04:58:31;16.50;99.90
4056;DHT22;2043;52.184;8.690;2023-07-20T05:00:58;16.40;99.90
4056;DHT22;2043;52.184;8.690;2023-07-20T05:03:25;16.40;99.90
4056;DHT22;2043;52.184;8.690;2023-07-20T05:05:53;16.50;99.90
4056;DHT22;2043;52.184;8.690;2023-07-20T05:08:20;16.50;99.90
4056;DHT22;2043;52.184;8.690;2023-07-20T05:10:48;16.50;99.90
4056;DHT22;2043;52.184;8.690;2023-07-20T05:13:15;16.50;99.90
4056;DHT22;2043;52.184;8.690;2023-07-20T05:15:42;16.60;99.90
4056;DHT22;2043;52.184;8.690;2023-07-20T05:18:09;16.60;99.90
4056;DHT22;2043;52.184;8.690;2023-07-20T05:20:36;16.70;99.90
4056;DHT22;2043;52.184;8.690;2023-07-20T05:23:03;16.80;99.90
4056;DHT22;2043;52.184;8.690;2023-07-20T05:25:31;16.90;99.90
4056;DHT22;2043;52.184;8.690;2023-07-20T05:27:57;16.80;99.90
4056;DHT22;2043;52.184;8.690;2023-07-20T05:30:24;16.80;99.90
4056;DHT22;2043;52.184;8.690;2023-07-20T05:32:51;16.80;99.90
4056;DHT22;2043;52.184;8.690;2023-07-20T05:35:19;16.80;99.90
4056;DHT22;2043;52.184;8.690;2023-07-20T05:37:46;16.80;99.90
4056;DHT22;2043;52.184;8.690;2023-07-20T05:40:14;16.90;99.90
4056;DHT22;2043;52.184;8.690;2023-07-20T05:42:45;16.80;99.90
4056;DHT22;2043;52.184;8.690;2023-07-20T05:45:13;16.80;99.90
4056;DHT22;2043;52.184;8.690;2023-07-20T05:47:41;16.90;99.90
4056;DHT22;2043;52.184;8.690;2023-07-20T05:50:08;17.00;99.90
4056;DHT22;2043;52.184;8.690;2023-07-20T05:52:35;17.00;99.90
4056;DHT22;2043;52.184;8.690;2023-07-20T05:55:02;17.10;99.90
4056;DHT22;2043;52.184;8.690;2023-07-20T05:57:29;17.10;99.90
4056;DHT22;2043;52.184;8.690;2023-07-20T05:59:56;17.20;99.90
4056;DHT22;2043;52.184;8.690;2023-07-20T06:02:23;17.30;99.90
4056;DHT22;2043;52.184;8.690;2023-07-20T06:04:50;17.30;99.90
4056;DHT22;2043;52.184;8.690;2023-07-20T06:07:16;17.70;99.90
4056;DHT22;2043;52.184;8.690;2023-07-20T06:09:43;17.90;99.90
4056;DHT22;2043;52.184;8.690;2023-07-20T06:12:10;18.10;99.70
4056;DHT22;2043;52.184;8.690;2023-07-20T06:14:37;18.20;99.60
4056;DHT22;2043;52.184;8.690;2023-07-20T06:17:05;18.30;99.10
4056;DHT22;2043;52.184;8.690;2023-07-20T06:19:32;18.50;99.20
4056;DHT22;2043;52.184;8.690;2023-07-20T06:21:58;18.70;97.30
4056;DHT22;2043;52.184;8.690;2023-07-20T06:24:25;18.60;97.30
4056;DHT22;2043;52.184;8.690;2023-07-20T06:26:52;18.50;97.10
4056;DHT22;2043;52.184;8.690;2023-07-20T06:29:19;18.60;97.60
4056;DHT22;2043;52.184;8.690;2023-07-20T06:31:46;18.60;97.40
4056;DHT22;2043;52.184;8.690;2023-07-20T06:34:12;18.60;96.90
4056;DHT22;2043;52.184;8.690;2023-07-20T06:36:39;18.60;96.70
4056;DHT22;2043;52.184;8.690;2023-07-20T06:39:06;18.60;96.70
4056;DHT22;2043;52.184;8.690;2023-07-20T06:41:36;18.60;96.50
4056;DHT22;2043;52.184;8.690;2023-07-20T06:44:06;18.60;96.00
4056;DHT22;2043;52.184;8.690;2023-07-20T06:46:32;18.50;96.40
4056;DHT22;2043;52.184;8.690;2023-07-20T06:48:59;18.50;96.20
4056;DHT22;2043;52.184;8.690;2023-07-20T06:51:29;18.50;96.00
4056;DHT22;2043;52.184;8.690;2023-07-20T06:53:56;18.30;96.20
4056;DHT22;2043;52.184;8.690;2023-07-20T06:56:23;18.20;96.80
4056;DHT22;2043;52.184;8.690;2023-07-20T06:58:52;18.20;96.00
4056;DHT22;2043;52.184;8.690;2023-07-20T07:01:18;18.20;96.50
4056;DHT22;2043;52.184;8.690;2023-07-20T07:03:48;18.20;96.30
4056;DHT22;2043;52.184;8.690;2023-07-20T07:06:19;18.30;95.50
4056;DHT22;2043;52.184;8.690;2023-07-20T07:08:48;18.50;94.70
4056;DHT22;2043;52.184;8.690;2023-07-20T07:11:15;18.50;94.80
4056;DHT22;2043;52.184;8.690;2023-07-20T07:13:42;18.70;93.80
4056;DHT22;2043;52.184;8.690;2023-07-20T07:16:08;19.00;92.10
4056;DHT22;2043;52.184;8.690;2023-07-20T07:18:35;19.00;91.40
4056;DHT22;2043;52.184;8.690;2023-07-20T07:21:02;18.90;91.70
4056;DHT22;2043;52.184;8.690;2023-07-20T07:23:29;18.80;91.80
4056;DHT22;2043;52.184;8.690;2023-07-20T07:25:56;18.80;91.90
4056;DHT22;2043;52.184;8.690;2023-07-20T07:28:23;18.70;92.10
4056;DHT22;2043;52.184;8.690;2023-07-20T07:33:17;19.00;92.10
4056;DHT22;2043;52.184;8.690;2023-07-20T07:35:44;19.00;91.90
4056;DHT22;2043;52.184;8.690;2023-07-20T07:38:10;19.00;92.30
4056;DHT22;2043;52.184;8.690;2023-07-20T07:40:58;19.00;92.00
4056;DHT22;2043;52.184;8.690;2023-07-20T07:43:25;19.10;90.60
4056;DHT22;2043;52.184;8.690;2023-07-20T07:45:54;19.20;89.40
4056;DHT22;2043;52.184;8.690;2023-07-20T07:48:21;19.20;90.60
4056;DHT22;2043;52.184;8.690;2023-07-20T07:50:48;19.50;89.60
4056;DHT22;2043;52.184;8.690;2023-07-20T07:53:16;19.50;89.60
4056;DHT22;2043;52.184;8.690;2023-07-20T07:55:43;19.90;89.00
4056;DHT22;2043;52.184;8.690;2023-07-20T07:58:10;20.20;85.60
4056;DHT22;2043;52.184;8.690;2023-07-20T08:00:37;20.50;84.70
4056;DHT22;2043;52.184;8.690;2023-07-20T08:03:05;20.50;84.80
4056;DHT22;2043;52.184;8.690;2023-07-20T08:05:33;20.60;82.10
4056;DHT22;2043;52.184;8.690;2023-07-20T08:08:02;20.80;82.70
4056;DHT22;2043;52.184;8.690;2023-07-20T08:10:30;20.90;81.50
4056;DHT22;2043;52.184;8.690;2023-07-20T08:12:57;21.00;82.30
4056;DHT22;2043;52.184;8.690;2023-07-20T08:15:24;21.00;82.40
4056;DHT22;2043;52.184;8.690;2023-07-20T08:17:51;21.10;82.90
4056;DHT22;2043;52.184;8.690;2023-07-20T08:20:19;21.10;82.90
4056;DHT22;2043;52.184;8.690;2023-07-20T08:22:46;21.50;82.60
4056;DHT22;2043;52.184;8.690;2023-07-20T08:25:14;21.50;80.70
4056;DHT22;2043;52.184;8.690;2023-07-20T08:27:41;21.30;80.70
4056;DHT22;2043;52.184;8.690;2023-07-20T08:30:08;20.90;82.10
4056;DHT22;2043;52.184;8.690;2023-07-20T08:35:02;20.80;82.90
4056;DHT22;2043;52.184;8.690;2023-07-20T08:37:29;21.20;83.10
4056;DHT22;2043;52.184;8.690;2023-07-20T08:39:56;21.20;83.10
4056;DHT22;2043;52.184;8.690;2023-07-20T08:44:52;21.60;81.30
4056;DHT22;2043;52.184;8.690;2023-07-20T08:47:20;21.70;81.20
4056;DHT22;2043;52.184;8.690;2023-07-20T08:49:50;22.10;79.20
4056;DHT22;2043;52.184;8.690;2023-07-20T08:52:17;22.00;78.00
4056;DHT22;2043;52.184;8.690;2023-07-20T08:54:44;22.00;77.50
4056;DHT22;2043;52.184;8.690;2023-07-20T08:57:13;22.10;78.80
4056;DHT22;2043;52.184;8.690;2023-07-20T08:59:41;22.20;79.50
4056;DHT22;2043;52.184;8.690;2023-07-20T09:02:14;21.80;78.60
4056;DHT22;2043;52.184;8.690;2023-07-20T09:04:45;21.50;80.70
4056;DHT22;2043;52.184;8.690;2023-07-20T09:07:12;21.40;78.80
4056;DHT22;2043;52.184;8.690;2023-07-20T09:09:41;21.60;78.10
4056;DHT22;2043;52.184;8.690;2023-07-20T09:12:14;21.30;76.10
4056;DHT22;2043;52.184;8.690;2023-07-20T09:14:43;21.20;77.60
4056;DHT22;2043;52.184;8.690;2023-07-20T09:17:14;21.30;77.70
4056;DHT22;2043;52.184;8.690;2023-07-20T09:19:48;21.90;77.50
4056;DHT22;2043;52.184;8.690;2023-07-20T09:22:15;22.00;78.40
4056;DHT22;2043;52.184;8.690;2023-07-20T09:27:10;21.20;80.40
4056;DHT22;2043;52.184;8.690;2023-07-20T09:29:51;21.20;80.40
4056;DHT22;2043;52.184;8.690;2023-07-20T09:32:19;21.10;81.20
4056;DHT22;2043;52.184;8.690;2023-07-20T09:34:50;21.70;80.20
4056;DHT22;2043;52.184;8.690;2023-07-20T09:37:23;22.10;77.70
4056;DHT22;2043;52.184;8.690;2023-07-20T09:39:53;22.30;77.10
4056;DHT22;2043;52.184;8.690;2023-07-20T09:42:23;22.30;77.00
4056;DHT22;2043;52.184;8.690;2023-07-20T09:44:54;22.00;76.30
4056;DHT22;2043;52.184;8.690;2023-07-20T09:47:23;22.00;76.30
4056;DHT22;2043;52.184;8.690;2023-07-20T09:49:59;21.90;76.90
4056;DHT22;2043;52.184;8.690;2023-07-20T09:52:30;22.60;74.90
4056;DHT22;2043;52.184;8.690;2023-07-20T09:55:00;22.60;74.80
4056;DHT22;2043;52.184;8.690;2023-07-20T10:02:28;22.50;73.90
4056;DHT22;2043;52.184;8.690;2023-07-20T10:05:00;22.30;75.30
4056;DHT22;2043;52.184;8.690;2023-07-20T10:07:30;22.80;75.00
4056;DHT22;2043;52.184;8.690;2023-07-20T10:09:59;23.20;72.20
4056;DHT22;2043;52.184;8.690;2023-07-20T10:12:28;23.20;72.50
4056;DHT22;2043;52.184;8.690;2023-07-20T10:15:05;23.10;72.60
4056;DHT22;2043;52.184;8.690;2023-07-20T10:17:37;22.90;72.60
4056;DHT22;2043;52.184;8.690;2023-07-20T10:20:07;22.90;72.70
4056;DHT22;2043;52.184;8.690;2023-07-20T10:22:36;22.80;72.50
4056;DHT22;2043;52.184;8.690;2023-07-20T10:25:08;22.70;74.20
4056;DHT22;2043;52.184;8.690;2023-07-20T10:30:03;23.10;73.70
4056;DHT22;2043;52.184;8.690;2023-07-20T10:32:32;23.40;73.10
4056;DHT22;2043;52.184;8.690;2023-07-20T10:34:59;23.20;72.90
4056;DHT22;2043;52.184;8.690;2023-07-20T10:37:46;24.20;74.30
4056;DHT22;2043;52.184;8.690;2023-07-20T10:40:39;24.80;71.50
4056;DHT22;2043;52.184;8.690;2023-07-20T10:43:07;24.90;71.20
4056;DHT22;2043;52.184;8.690;2023-07-20T10:45:48;24.50;70.50
4056;DHT22;2043;52.184;8.690;2023-07-20T10:48:18;24.30;70.60
4056;DHT22;2043;52.184;8.690;2023-07-20T10:51:08;24.30;71.70
4056;DHT22;2043;52.184;8.690;2023-07-20T10:53:33;24.30;71.30
4056;DHT22;2043;52.184;8.690;2023-07-20T10:56:23;24.10;71.10
4056;DHT22;2043;52.184;8.690;2023-07-20T10:58:54;24.00;72.00
4056;DHT22;2043;52.184;8.690;2023-07-20T11:01:28;24.50;72.30
4056;DHT22;2043;52.184;8.690;2023-07-20T11:04:00;24.80;69.80
4056;DHT22;2043;52.184;8.690;2023-07-20T11:09:04;24.80;70.70
4056;DHT22;2043;52.184;8.690;2023-07-20T11:11:35;24.90;69.60
4056;DHT22;2043;52.184;8.690;2023-07-20T11:14:08;24.80;70.50
4056;DHT22;2043;52.184;8.690;2023-07-20T11:21:51;25.10;68.50
4056;DHT22;2043;52.184;8.690;2023-07-20T11:24:29;25.00;68.30
4056;DHT22;2043;52.184;8.690;2023-07-20T11:31:59;23.80;68.90
4056;DHT22;2043;52.184;8.690;2023-07-20T11:34:29;23.80;68.90
4056;DHT22;2043;52.184;8.690;2023-07-20T11:36:56;23.80;68.70
4056;DHT22;2043;52.184;8.690;2023-07-20T11:39:26;23.60;69.60
4056;DHT22;2043;52.184;8.690;2023-07-20T11:41:55;23.80;70.10
4056;DHT22;2043;52.184;8.690;2023-07-20T11:44:26;24.10;69.00
4056;DHT22;2043;52.184;8.690;2023-07-20T11:47:15;24.00;68.00
4056;DHT22;2043;52.184;8.690;2023-07-20T11:49:43;23.40;69.60
4056;DHT22;2043;52.184;8.690;2023-07-20T11:52:11;23.40;69.50
4056;DHT22;2043;52.184;8.690;2023-07-20T11:54:39;23.40;70.20
4056;DHT22;2043;52.184;8.690;2023-07-20T11:57:18;23.80;71.00
4056;DHT22;2043;52.184;8.690;2023-07-20T11:59:55;24.30;69.10
4056;DHT22;2043;52.184;8.690;2023-07-20T12:02:25;24.40;68.40
4056;DHT22;2043;52.184;8.690;2023-07-20T12:04:54;24.00;69.10
4056;DHT22;2043;52.184;8.690;2023-07-20T12:07:21;24.10;69.10
4056;DHT22;2043;52.184;8.690;2023-07-20T12:10:08;23.90;68.60
4056;DHT22;2043;52.184;8.690;2023-07-20T12:12:43;23.80;70.00
4056;DHT22;2043;52.184;8.690;2023-07-20T12:15:19;23.60;69.60
4056;DHT22;2043;52.184;8.690;2023-07-20T12:17:49;23.70;70.00
4056;DHT22;2043;52.184;8.690;2023-07-20T12:20:36;23.90;70.20
4056;DHT22;2043;52.184;8.690;2023-07-20T12:23:13;23.80;69.70
4056;DHT22;2043;52.184;8.690;2023-07-20T12:28:09;24.00;69.30
4056;DHT22;2043;52.184;8.690;2023-07-20T12:30:37;23.90;68.90
4056;DHT22;2043;52.184;8.690;2023-07-20T12:33:04;23.60;70.50
4056;DHT22;2043;52.184;8.690;2023-07-20T12:35:32;23.60;70.50
4056;DHT22;2043;52.184;8.690;2023-07-20T12:38:00;23.70;70.90
4056;DHT22;2043;52.184;8.690;2023-07-20T12:40:27;24.00;71.10
4056;DHT22;2043;52.184;8.690;2023-07-20T12:42:53;24.00;70.70
4056;DHT22;2043;52.184;8.690;2023-07-20T12:45:20;24.00;70.40
4056;DHT22;2043;52.184;8.690;2023-07-20T12:47:48;24.00;70.40
4056;DHT22;2043;52.184;8.690;2023-07-20T12:50:15;24.30;69.50
4056;DHT22;2043;52.184;8.690;2023-07-20T12:52:42;24.60;68.90
4056;DHT22;2043;52.184;8.690;2023-07-20T12:55:10;24.60;69.70
4056;DHT22;2043;52.184;8.690;2023-07-20T12:57:37;24.80;69.10
4056;DHT22;2043;52.184;8.690;2023-07-20T13:00:06;24.90;68.60
4056;DHT22;2043;52.184;8.690;2023-07-20T13:02:35;25.10;68.10
4056;DHT22;2043;52.184;8.690;2023-07-20T13:05:03;25.40;67.70
4056;DHT22;2043;52.184;8.690;2023-07-20T13:07:35;25.00;67.50
4056;DHT22;2043;52.184;8.690;2023-07-20T13:10:06;24.40;68.20
4056;DHT22;2043;52.184;8.690;2023-07-20T13:12:34;24.20;69.20
4056;DHT22;2043;52.184;8.690;2023-07-20T13:15:03;23.90;68.30
4056;DHT22;2043;52.184;8.690;2023-07-20T13:17:33;23.90;69.50
4056;DHT22;2043;52.184;8.690;2023-07-20T13:20:01;23.90;69.80
4056;DHT22;2043;52.184;8.690;2023-07-20T13:22:30;23.90;70.30
4056;DHT22;2043;52.184;8.690;2023-07-20T13:24:56;23.90;70.60
4056;DHT22;2043;52.184;8.690;2023-07-20T13:27:23;23.90;70.10
4056;DHT22;2043;52.184;8.690;2023-07-20T13:29:52;23.80;71.60
4056;DHT22;2043;52.184;8.690;2023-07-20T13:32:19;23.90;70.30
4056;DHT22;2043;52.184;8.690;2023-07-20T13:34:46;23.90;70.40
4056;DHT22;2043;52.184;8.690;2023-07-20T13:37:14;23.70;70.40
4056;DHT22;2043;52.184;8.690;2023-07-20T13:39:43;23.80;69.50
4056;DHT22;2043;52.184;8.690;2023-07-20T13:42:10;24.10;69.20
4056;DHT22;2043;52.184;8.690;2023-07-20T13:44:39;24.60;68.30
4056;DHT22;2043;52.184;8.690;2023-07-20T13:47:06;24.70;67.80
4056;DHT22;2043;52.184;8.690;2023-07-20T13:49:35;24.70;67.30
4056;DHT22;2043;52.184;8.690;2023-07-20T13:52:11;24.50;67.40
4056;DHT22;2043;52.184;8.690;2023-07-20T13:54:41;24.80;69.20
4056;DHT22;2043;52.184;8.690;2023-07-20T13:57:14;25.30;66.90
4056;DHT22;2043;52.184;8.690;2023-07-20T13:59:42;25.30;65.90
4056;DHT22;2043;52.184;8.690;2023-07-20T14:02:09;25.00;66.10
4056;DHT22;2043;52.184;8.690;2023-07-20T14:04:39;24.80;66.40
4056;DHT22;2043;52.184;8.690;2023-07-20T14:07:06;24.40;67.30
4056;DHT22;2043;52.184;8.690;2023-07-20T14:09:34;24.50;68.30
4056;DHT22;2043;52.184;8.690;2023-07-20T14:12:01;24.30;68.60
4056;DHT22;2043;52.184;8.690;2023-07-20T14:14:30;24.00;68.50
4056;DHT22;2043;52.184;8.690;2023-07-20T14:16:57;23.60;69.50
4056;DHT22;2043;52.184;8.690;2023-07-20T14:19:24;23.60;71.00
4056;DHT22;2043;52.184;8.690;2023-07-20T14:21:51;23.60;71.20
4056;DHT22;2043;52.184;8.690;2023-07-20T14:24:18;23.50;71.30
4056;DHT22;2043;52.184;8.690;2023-07-20T14:26:45;23.50;72.30
4056;DHT22;2043;52.184;8.690;2023-07-20T14:29:18;23.40;72.30
4056;DHT22;2043;52.184;8.690;2023-07-20T14:31:45;23.00;72.90
4056;DHT22;2043;52.184;8.690;2023-07-20T14:34:19;23.00;72.70
4056;DHT22;2043;52.184;8.690;2023-07-20T14:36:46;22.80;73.20
4056;DHT22;2043;52.184;8.690;2023-07-20T14:39:13;22.90;73.60
4056;DHT22;2043;52.184;8.690;2023-07-20T14:41:39;23.00;73.40
4056;DHT22;2043;52.184;8.690;2023-07-20T14:44:09;23.10;73.20
4056;DHT22;2043;52.184;8.690;2023-07-20T14:46:36;23.10;72.50
4056;DHT22;2043;52.184;8.690;2023-07-20T14:49:03;23.10;72.70
4056;DHT22;2043;52.184;8.690;2023-07-20T14:51:30;23.20;73.00
4056;DHT22;2043;52.184;8.690;2023-07-20T14:54:02;23.30;72.50
4056;DHT22;2043;52.184;8.690;2023-07-20T14:56:29;23.30;72.60
4056;DHT22;2043;52.184;8.690;2023-07-20T14:58:56;23.50;72.80
4056;DHT22;2043;52.184;8.690;2023-07-20T15:01:24;23.40;72.20
4056;DHT22;2043;52.184;8.690;2023-07-20T15:03:51;23.40;72.60
4056;DHT22;2043;52.184;8.690;2023-07-20T15:06:23;23.60;73.00
4056;DHT22;2043;52.184;8.690;2023-07-20T15:08:52;23.60;72.50
4056;DHT22;2043;52.184;8.690;2023-07-20T15:11:19;23.60;71.50
4056;DHT22;2043;52.184;8.690;2023-07-20T15:13:45;23.80;71.40
4056;DHT22;2043;52.184;8.690;2023-07-20T15:16:12;24.20;71.50
4056;DHT22;2043;52.184;8.690;2023-07-20T15:18:39;24.40;70.80
4056;DHT22;2043;52.184;8.690;2023-07-20T15:21:14;24.30;70.60
4056;DHT22;2043;52.184;8.690;2023-07-20T15:23:44;24.30;70.00
4056;DHT22;2043;52.184;8.690;2023-07-20T15:26:11;24.10;70.50
4056;DHT22;2043;52.184;8.690;2023-07-20T15:28:39;23.80;70.10
4056;DHT22;2043;52.184;8.690;2023-07-20T15:31:05;23.70;70.60
4056;DHT22;2043;52.184;8.690;2023-07-20T15:33:32;23.50;71.70
4056;DHT22;2043;52.184;8.690;2023-07-20T15:35:59;23.40;71.10
4056;DHT22;2043;52.184;8.690;2023-07-20T15:38:26;23.20;71.60
4056;DHT22;2043;52.184;8.690;2023-07-20T15:40:53;23.10;72.70
4056;DHT22;2043;52.184;8.690;2023-07-20T15:43:21;23.00;73.10
4056;DHT22;2043;52.184;8.690;2023-07-20T15:45:49;23.00;72.90
4056;DHT22;2043;52.184;8.690;2023-07-20T15:48:18;23.00;73.00
4056;DHT22;2043;52.184;8.690;2023-07-20T15:50:49;23.00;72.80
4056;DHT22;2043;52.184;8.690;2023-07-20T15:53:16;23.00;71.20
4056;DHT22;2043;52.184;8.690;2023-07-20T15:55:43;23.00;71.60
4056;DHT22;2043;52.184;8.690;2023-07-20T15:58:10;23.00;71.20
4056;DHT22;2043;52.184;8.690;2023-07-20T16:00:37;23.10;71.70
4056;DHT22;2043;52.184;8.690;2023-07-20T16:03:04;22.90;71.20
4056;DHT22;2043;52.184;8.690;2023-07-20T16:05:32;22.70;70.70
4056;DHT22;2043;52.184;8.690;2023-07-20T16:07:59;22.80;72.30
4056;DHT22;2043;52.184;8.690;2023-07-20T16:10:26;23.00;71.40
4056;DHT22;2043;52.184;8.690;2023-07-20T16:12:55;23.00;70.30
4056;DHT22;2043;52.184;8.690;2023-07-20T16:15:21;22.90;71.50
4056;DHT22;2043;52.184;8.690;2023-07-20T16:17:52;23.00;70.10
4056;DHT22;2043;52.184;8.690;2023-07-20T16:20:19;23.00;70.30
4056;DHT22;2043;52.184;8.690;2023-07-20T16:22:46;23.10;69.90
4056;DHT22;2043;52.184;8.690;2023-07-20T16:25:13;23.40;71.40
4056;DHT22;2043;52.184;8.690;2023-07-20T16:27:40;23.80;69.10
4056;DHT22;2043;52.184;8.690;2023-07-20T16:30:07;24.00;68.10
4056;DHT22;2043;52.184;8.690;2023-07-20T16:32:33;23.90;66.80
4056;DHT22;2043;52.184;8.690;2023-07-20T16:35:01;23.90;68.30
4056;DHT22;2043;52.184;8.690;2023-07-20T16:37:31;23.70;67.70
4056;DHT22;2043;52.184;8.690;2023-07-20T16:40:01;23.40;68.40
4056;DHT22;2043;52.184;8.690;2023-07-20T16:42:31;23.40;69.40
4056;DHT22;2043;52.184;8.690;2023-07-20T16:45:01;23.50;69.60
4056;DHT22;2043;52.184;8.690;2023-07-20T16:47:28;23.60;69.20
4056;DHT22;2043;52.184;8.690;2023-07-20T16:49:55;23.60;68.10
4056;DHT22;2043;52.184;8.690;2023-07-20T16:52:24;23.70;68.10